createdAt,value
2022-10-10T00:00:13.861Z,6.30
2022-10-10T00:02:42.049Z,6.22
2022-10-10T00:05:11.509Z,6.17
2022-10-10T00:07:39.278Z,6.00
2022-10-10T00:10:07.712Z,6.12
2022-10-10T00:12:35.474Z,6.06
2022-10-10T00:15:03.868Z,5.90
2022-10-10T00:17:31.947Z,5.79
2022-10-10T00:19:59.794Z,5.92
2022-10-10T00:22:28.939Z,5.82
2022-10-10T00:24:56.703Z,5.86
2022-10-10T00:27:25.965Z,5.78
2022-10-10T00:29:54.100Z,5.78
2022-10-10T00:32:21.866Z,5.81
2022-10-10T00:34:49.650Z,5.92
2022-10-10T00:37:17.446Z,5.71
2022-10-10T00:39:46.593Z,5.87
2022-10-10T00:42:16.272Z,5.69
2022-10-10T00:44:44.921Z,5.68
2022-10-10T00:47:12.835Z,5.60
2022-10-10T00:49:42.393Z,5.56
2022-10-10T00:52:11.855Z,5.43
2022-10-10T00:54:40.147Z,5.36
2022-10-10T00:57:11.410Z,5.38
2022-10-10T00:59:40.626Z,5.51
2022-10-10T01:02:08.397Z,5.37
2022-10-10T01:04:39.584Z,5.61
2022-10-10T01:07:12.413Z,5.42
2022-10-10T01:09:42.035Z,5.49
2022-10-10T01:12:17.292Z,5.46
2022-10-10T01:14:48.591Z,5.35
2022-10-10T01:17:20.459Z,5.39
2022-10-10T01:19:58.553Z,5.34
2022-10-10T01:22:30.128Z,5.43
2022-10-10T01:25:00.833Z,5.50
2022-10-10T01:27:34.469Z,5.55
2022-10-10T01:30:05.857Z,5.58
2022-10-10T01:32:36.188Z,5.66
2022-10-10T01:35:08.967Z,5.78
2022-10-10T01:37:41.094Z,5.67
2022-10-10T01:40:13.145Z,5.51
2022-10-10T01:42:43.033Z,5.46
2022-10-10T01:45:12.796Z,5.45
2022-10-10T01:47:40.739Z,5.43
2022-10-10T01:50:10.386Z,5.47
2022-10-10T01:52:46.106Z,5.36
2022-10-10T01:55:22.521Z,5.38
2022-10-10T01:57:56.274Z,5.47
2022-10-10T02:00:25.708Z,5.42
2022-10-10T02:02:56.990Z,5.32
2022-10-10T02:05:29.621Z,5.35
2022-10-10T02:07:59.268Z,5.23
2022-10-10T02:10:29.316Z,5.20
2022-10-10T02:12:58.244Z,5.27
2022-10-10T02:15:29.833Z,5.22
2022-10-10T02:17:58.415Z,5.24
2022-10-10T02:20:28.874Z,5.18
2022-10-10T02:22:57.330Z,5.17
2022-10-10T02:25:28.376Z,5.24
2022-10-10T02:28:00.549Z,5.18
2022-10-10T02:30:30.026Z,5.21
2022-10-10T02:33:00.399Z,5.20
2022-10-10T02:35:31.109Z,5.30
2022-10-10T02:38:00.257Z,5.26
2022-10-10T02:40:30.251Z,5.20
2022-10-10T02:43:00.366Z,5.23
2022-10-10T02:45:29.639Z,5.27
2022-10-10T02:47:58.873Z,5.33
2022-10-10T02:50:27.009Z,5.30
2022-10-10T02:52:54.775Z,5.27
2022-10-10T02:55:22.528Z,5.27
2022-10-10T02:57:50.321Z,5.33
2022-10-10T03:00:18.624Z,5.33
2022-10-10T03:02:47.090Z,5.35
2022-10-10T03:05:16.292Z,5.41
2022-10-10T03:07:44.083Z,5.42
2022-10-10T03:10:11.871Z,5.38
2022-10-10T03:12:39.659Z,5.28
2022-10-10T03:15:11.478Z,5.38
2022-10-10T03:17:40.097Z,5.34
2022-10-10T03:20:08.717Z,5.27
2022-10-10T03:22:38.013Z,5.24
2022-10-10T03:25:06.218Z,5.31
2022-10-10T03:27:33.996Z,5.22
2022-10-10T03:30:01.905Z,5.28
2022-10-10T03:32:29.710Z,5.35
2022-10-10T03:34:57.552Z,5.29
2022-10-10T03:37:25.317Z,5.33
2022-10-10T03:39:54.393Z,5.49
2022-10-10T03:42:22.308Z,5.48
2022-10-10T03:44:50.116Z,5.51
2022-10-10T03:47:17.953Z,5.43
2022-10-10T03:49:45.719Z,5.41
2022-10-10T03:52:13.485Z,5.46
2022-10-10T03:54:41.381Z,5.35
2022-10-10T03:57:10.499Z,5.32
2022-10-10T03:59:38.269Z,5.31
2022-10-10T04:02:06.112Z,5.33
2022-10-10T04:04:33.946Z,5.35
2022-10-10T04:07:01.862Z,5.28
2022-10-10T04:09:29.610Z,5.33
2022-10-10T04:11:57.341Z,5.37
2022-10-10T04:14:26.734Z,5.43
2022-10-10T04:16:54.622Z,5.38
2022-10-10T04:19:22.610Z,5.32
2022-10-10T04:21:50.872Z,5.31
2022-10-10T04:24:18.634Z,5.35
2022-10-10T04:26:46.497Z,5.39
2022-10-10T04:29:14.235Z,5.44
2022-10-10T04:31:43.673Z,5.43
2022-10-10T04:34:11.558Z,5.33
2022-10-10T04:36:39.312Z,5.36
2022-10-10T04:39:07.154Z,5.38
2022-10-10T04:41:35.225Z,5.32
2022-10-10T04:44:03.129Z,5.31
2022-10-10T04:46:30.840Z,5.25
2022-10-10T04:48:59.939Z,5.34
2022-10-10T04:51:27.718Z,5.37
2022-10-10T04:53:55.468Z,5.43
2022-10-10T04:56:23.423Z,5.49
2022-10-10T04:58:51.298Z,5.41
2022-10-10T05:01:19.077Z,5.29
2022-10-10T05:03:46.828Z,5.36
2022-10-10T05:06:15.965Z,5.28
2022-10-10T05:08:44.271Z,5.23
2022-10-10T05:11:12.009Z,5.28
2022-10-10T05:13:39.749Z,5.23
2022-10-10T05:16:07.640Z,5.32
2022-10-10T05:18:37.250Z,5.26
2022-10-10T05:21:06.857Z,5.29
2022-10-10T05:23:36.342Z,5.36
2022-10-10T05:26:04.166Z,5.27
2022-10-10T05:28:35.152Z,5.22
2022-10-10T05:31:03.643Z,5.19
2022-10-10T05:33:31.635Z,5.19
2022-10-10T05:36:04.422Z,5.30
2022-10-10T05:38:32.400Z,5.24
2022-10-10T05:41:01.920Z,5.40
2022-10-10T05:43:30.192Z,5.42
2022-10-10T05:45:58.414Z,5.43
2022-10-10T05:48:26.259Z,5.47
2022-10-10T05:50:56.330Z,5.43
2022-10-10T05:53:24.533Z,5.49
2022-10-10T05:55:52.747Z,5.48
2022-10-10T05:58:21.888Z,5.56
2022-10-10T06:00:50.240Z,5.62
2022-10-10T06:03:18.345Z,5.67
2022-10-10T06:05:48.648Z,5.69
2022-10-10T06:08:16.383Z,5.80
2022-10-10T06:10:45.402Z,5.90
2022-10-10T06:13:14.333Z,6.01
2022-10-10T06:15:43.568Z,6.06
2022-10-10T06:18:11.807Z,6.21
2022-10-10T06:20:40.165Z,6.33
2022-10-10T06:23:08.985Z,6.47
2022-10-10T06:25:41.770Z,6.58
2022-10-10T06:28:10.153Z,6.94
2022-10-10T06:30:40.480Z,8.06
2022-10-10T06:33:09.864Z,9.77
2022-10-10T06:35:41.698Z,11.57
2022-10-10T06:38:09.695Z,13.20
2022-10-10T06:40:37.465Z,14.06
2022-10-10T06:43:08.694Z,15.23
2022-10-10T06:45:37.366Z,16.48
2022-10-10T06:48:05.670Z,17.37
2022-10-10T06:50:34.844Z,18.31
2022-10-10T06:53:02.616Z,18.68
2022-10-10T06:55:30.612Z,19.33
2022-10-10T06:57:58.643Z,20.08
2022-10-10T07:00:26.999Z,20.59
2022-10-10T07:02:54.833Z,21.21
2022-10-10T07:05:22.578Z,21.78
2022-10-10T07:07:52.491Z,23.23
2022-10-10T07:10:20.408Z,24.18
2022-10-10T07:12:48.175Z,25.00
2022-10-10T07:15:16.070Z,24.52
2022-10-10T07:17:43.785Z,25.46
2022-10-10T07:20:11.666Z,25.05
2022-10-10T07:22:39.650Z,24.97
2022-10-10T07:25:09.510Z,24.62
2022-10-10T07:27:37.374Z,22.59
2022-10-10T07:30:05.662Z,22.54
2022-10-10T07:32:33.643Z,23.60
2022-10-10T07:35:01.725Z,23.57
2022-10-10T07:37:29.684Z,24.00
2022-10-10T07:39:57.594Z,24.18
2022-10-10T07:42:27.417Z,24.13
2022-10-10T07:44:55.513Z,24.15
2022-10-10T07:47:23.600Z,24.03
2022-10-10T07:49:51.445Z,24.45
2022-10-10T07:52:19.229Z,24.78
2022-10-10T07:54:47.263Z,23.59
2022-10-10T07:57:15.072Z,22.55
2022-10-10T07:59:45.659Z,22.32
2022-10-10T08:02:13.472Z,22.28
2022-10-10T08:04:41.304Z,23.21
2022-10-10T08:07:09.219Z,22.48
2022-10-10T08:09:37.098Z,22.41
2022-10-10T08:12:05.003Z,22.06
2022-10-10T08:14:32.770Z,21.62
2022-10-10T08:17:01.862Z,21.75
2022-10-10T08:19:29.771Z,22.15
2022-10-10T08:21:57.508Z,21.99
2022-10-10T08:24:25.481Z,23.02
2022-10-10T08:26:53.182Z,23.50
2022-10-10T08:29:21.350Z,23.89
2022-10-10T08:31:49.101Z,23.43
2022-10-10T08:34:18.262Z,24.68
2022-10-10T08:36:46.229Z,24.83
2022-10-10T08:39:13.988Z,25.32
2022-10-10T08:41:43.938Z,24.59
2022-10-10T08:44:15.469Z,24.82
2022-10-10T08:46:45.422Z,25.70
2022-10-10T08:49:17.442Z,26.18
2022-10-10T08:51:49.221Z,25.49
2022-10-10T08:54:18.817Z,26.71
2022-10-10T08:56:47.093Z,28.15
2022-10-10T08:59:16.474Z,28.80
2022-10-10T09:02:18.175Z,28.26
2022-10-10T09:04:33.753Z,27.25
2022-10-10T09:07:14.856Z,28.44
2022-10-10T09:09:49.374Z,26.39
2022-10-10T09:12:23.923Z,26.27
2022-10-10T09:14:59.864Z,26.82
2022-10-10T09:17:36.446Z,26.52
2022-10-10T09:20:11.433Z,25.53
2022-10-10T09:22:45.928Z,28.17
2022-10-10T09:25:18.338Z,30.22
2022-10-10T09:27:51.439Z,32.40
2022-10-10T09:30:21.120Z,31.11
2022-10-10T09:32:52.762Z,29.57
2022-10-10T09:35:22.904Z,30.95
2022-10-10T09:37:54.538Z,31.46
2022-10-10T09:40:25.067Z,33.13
2022-10-10T09:42:53.077Z,31.55
2022-10-10T09:45:21.942Z,32.94
2022-10-10T09:47:52.167Z,33.18
2022-10-10T09:50:20.162Z,33.44
2022-10-10T09:52:48.965Z,33.92
2022-10-10T09:55:24.089Z,33.05
2022-10-10T09:57:55.075Z,34.87
2022-10-10T10:00:29.296Z,33.75
2022-10-10T10:03:05.486Z,33.74
2022-10-10T10:05:33.527Z,35.43
2022-10-10T10:08:01.283Z,31.27
2022-10-10T10:10:34.985Z,27.32
2022-10-10T10:13:02.976Z,27.52
2022-10-10T10:15:32.415Z,29.45
2022-10-10T10:18:14.557Z,27.92
2022-10-10T10:20:43.070Z,28.50
2022-10-10T10:23:23.702Z,27.10
2022-10-10T10:26:01.270Z,24.70
2022-10-10T10:28:29.865Z,23.39
2022-10-10T10:30:59.591Z,22.95
2022-10-10T10:33:38.819Z,23.97
2022-10-10T10:36:11.001Z,27.33
2022-10-10T10:38:43.383Z,28.12
2022-10-10T10:41:18.187Z,30.38
2022-10-10T10:43:58.957Z,33.02
2022-10-10T10:46:32.090Z,32.55
2022-10-10T10:49:01.899Z,35.61
2022-10-10T10:51:37.284Z,35.44
2022-10-10T10:54:10.640Z,32.69
2022-10-10T10:56:41.753Z,30.02
2022-10-10T11:00:25.768Z,31.91
2022-10-10T11:02:37.123Z,34.47
2022-10-10T11:05:32.676Z,36.90
2022-10-10T11:08:11.603Z,30.38
2022-10-10T11:10:43.159Z,28.95
2022-10-10T11:13:15.402Z,28.27
2022-10-10T11:18:36.270Z,29.49
2022-10-10T11:21:07.333Z,25.89
2022-10-10T11:23:38.026Z,26.44
2022-10-10T11:26:08.261Z,28.29
2022-10-10T11:28:41.111Z,27.64
2022-10-10T11:31:12.705Z,27.78
2022-10-10T11:33:43.237Z,27.40
2022-10-10T11:36:15.460Z,24.36
2022-10-10T11:38:45.597Z,25.22
2022-10-10T11:41:14.764Z,25.84
2022-10-10T11:43:47.373Z,27.04
2022-10-10T11:46:19.901Z,24.77
2022-10-10T11:48:52.772Z,24.67
2022-10-10T11:51:28.943Z,24.33
2022-10-10T11:53:59.876Z,23.35
2022-10-10T11:56:31.587Z,24.43
2022-10-10T11:59:06.547Z,22.77
2022-10-10T12:01:36.583Z,23.31
2022-10-10T12:04:04.673Z,23.35
2022-10-10T12:06:36.239Z,22.86
2022-10-10T12:09:08.567Z,22.66
2022-10-10T12:11:40.435Z,22.73
2022-10-10T12:14:10.965Z,22.36
2022-10-10T12:16:39.109Z,22.01
2022-10-10T12:19:11.591Z,22.22
2022-10-10T12:21:54.525Z,22.07
2022-10-10T12:24:23.063Z,21.68
2022-10-10T12:27:09.490Z,22.61
2022-10-10T12:29:42.805Z,22.43
2022-10-10T12:32:11.770Z,22.55
2022-10-10T12:34:43.733Z,22.71
2022-10-10T12:37:20.993Z,22.68
2022-10-10T12:40:02.896Z,22.46
2022-10-10T12:42:32.369Z,21.47
2022-10-10T12:45:01.777Z,22.77
2022-10-10T12:47:59.989Z,22.66
2022-10-10T12:50:22.490Z,22.60
2022-10-10T12:52:52.988Z,24.30
2022-10-10T12:55:22.159Z,26.17
2022-10-10T12:57:51.436Z,27.29
2022-10-10T13:00:22.174Z,25.36
2022-10-10T13:02:51.921Z,23.14
2022-10-10T13:05:21.557Z,23.84
2022-10-10T13:07:50.730Z,24.15
2022-10-10T13:10:24.975Z,27.68
2022-10-10T13:12:59.457Z,28.31
2022-10-10T13:15:29.699Z,26.95
2022-10-10T13:18:00.263Z,27.68
2022-10-10T13:20:29.708Z,26.26
2022-10-10T13:22:58.072Z,25.73
2022-10-10T13:25:26.013Z,25.47
2022-10-10T13:27:53.849Z,24.85
2022-10-10T13:30:26.413Z,29.15
2022-10-10T13:32:56.295Z,29.23
2022-10-10T13:35:29.373Z,28.91
2022-10-10T13:37:58.527Z,29.58
2022-10-10T13:40:28.635Z,32.23
2022-10-10T13:43:05.290Z,33.05
2022-10-10T13:45:36.991Z,32.55
2022-10-10T13:48:28.821Z,30.82
2022-10-10T13:51:07.728Z,30.01
2022-10-10T13:53:37.403Z,29.85
2022-10-10T13:56:07.453Z,28.39
2022-10-10T13:58:39.691Z,24.80
2022-10-10T14:01:19.535Z,22.52
2022-10-10T14:03:50.156Z,21.88
2022-10-10T14:06:19.001Z,21.14
2022-10-10T14:08:47.566Z,21.18
2022-10-10T14:11:17.290Z,21.33
2022-10-10T14:13:48.189Z,21.63
2022-10-10T14:16:23.904Z,21.48
2022-10-10T14:18:53.312Z,21.69
2022-10-10T14:21:21.557Z,21.68
2022-10-10T14:23:49.320Z,21.66
2022-10-10T14:26:18.105Z,21.58
2022-10-10T14:28:46.196Z,22.60
2022-10-10T14:31:18.145Z,23.28
2022-10-10T14:33:45.958Z,22.99
2022-10-10T14:36:15.165Z,23.56
2022-10-10T14:38:43.016Z,23.04
2022-10-10T14:41:14.004Z,22.16
2022-10-10T14:43:45.747Z,21.68
2022-10-10T14:46:17.808Z,21.22
2022-10-10T14:48:45.759Z,20.64
2022-10-10T14:51:34.410Z,20.22
2022-10-10T14:54:12.434Z,19.53
2022-10-10T14:57:09.549Z,19.56
2022-10-10T14:59:47.157Z,19.63
2022-10-10T15:02:20.229Z,19.58
2022-10-10T15:04:48.185Z,19.36
2022-10-10T15:07:17.502Z,19.18
2022-10-10T15:10:10.870Z,19.07
2022-10-10T15:12:33.571Z,18.80
2022-10-10T15:15:01.423Z,18.65
2022-10-10T15:17:30.482Z,18.39
2022-10-10T15:19:58.321Z,18.17
2022-10-10T15:22:27.827Z,17.94
2022-10-10T15:24:55.905Z,17.79
2022-10-10T15:27:23.731Z,17.64
2022-10-10T15:29:51.764Z,17.57
2022-10-10T15:32:19.562Z,17.51
2022-10-10T15:34:48.418Z,17.51
2022-10-10T15:37:16.222Z,17.47
2022-10-10T15:39:45.826Z,17.47
2022-10-10T15:42:18.560Z,17.44
2022-10-10T15:44:49.587Z,17.27
2022-10-10T15:47:18.366Z,17.21
2022-10-10T15:49:46.214Z,17.15
2022-10-10T15:52:13.993Z,17.04
2022-10-10T15:54:41.832Z,16.88
2022-10-10T15:57:13.242Z,16.70
2022-10-10T15:59:44.660Z,16.57
2022-10-10T16:02:12.491Z,16.49
2022-10-10T16:04:40.437Z,16.45
2022-10-10T16:09:56.229Z,16.39
2022-10-10T16:12:25.427Z,16.17
2022-10-10T16:14:53.222Z,15.88
2022-10-10T16:17:23.593Z,15.60
2022-10-10T16:19:52.156Z,15.30
2022-10-10T16:22:20.422Z,15.11
2022-10-10T16:25:10.106Z,14.95
2022-10-10T16:27:37.996Z,14.80
2022-10-10T16:30:06.698Z,14.76
2022-10-10T16:32:38.109Z,14.76
2022-10-10T16:35:07.625Z,14.80
2022-10-10T16:37:35.426Z,14.78
2022-10-10T16:40:03.283Z,14.69
2022-10-10T16:42:31.046Z,14.67
2022-10-10T16:45:00.187Z,14.66
2022-10-10T16:47:28.301Z,14.65
2022-10-10T16:49:56.071Z,14.65
2022-10-10T16:52:23.821Z,14.69
2022-10-10T16:54:52.472Z,14.68
2022-10-10T16:57:20.405Z,14.74
2022-10-10T16:59:48.389Z,14.72
2022-10-10T17:02:17.506Z,14.69
2022-10-10T17:04:45.336Z,14.71
2022-10-10T17:07:13.209Z,14.79
2022-10-10T17:09:41.039Z,14.66
2022-10-10T17:12:09.003Z,14.56
2022-10-10T17:14:36.859Z,14.23
2022-10-10T17:17:13.463Z,13.90
2022-10-10T17:19:43.169Z,13.70
2022-10-10T17:22:11.217Z,13.61
2022-10-10T17:24:39.142Z,13.52
2022-10-10T17:27:16.904Z,13.41
2022-10-10T17:29:44.814Z,13.26
2022-10-10T17:32:12.849Z,13.19
2022-10-10T17:34:40.744Z,13.08
2022-10-10T17:37:09.847Z,12.99
2022-10-10T17:39:38.245Z,12.92
2022-10-10T17:42:06.131Z,12.89
2022-10-10T17:44:39.727Z,12.88
2022-10-10T17:47:11.691Z,12.91
2022-10-10T17:49:45.549Z,12.88
2022-10-10T17:52:20.275Z,12.87
2022-10-10T17:54:49.168Z,12.86
2022-10-10T17:57:17.526Z,12.79
2022-10-10T17:59:45.280Z,12.87
2022-10-10T18:02:15.085Z,12.83
2022-10-10T18:04:42.898Z,12.77
2022-10-10T18:07:12.129Z,12.81
2022-10-10T18:09:41.495Z,12.70
2022-10-10T18:12:09.396Z,12.71
2022-10-10T18:14:37.205Z,12.63
2022-10-10T18:17:05.015Z,12.66
2022-10-10T18:19:32.985Z,12.59
2022-10-10T18:22:00.859Z,12.61
2022-10-10T18:24:28.801Z,12.55
2022-10-10T18:26:57.937Z,12.52
2022-10-10T18:29:25.881Z,12.53
2022-10-10T18:31:54.156Z,12.47
2022-10-10T18:34:21.933Z,12.47
2022-10-10T18:36:50.516Z,12.41
2022-10-10T18:39:19.478Z,12.43
2022-10-10T18:41:47.750Z,12.47
2022-10-10T18:44:17.850Z,12.45
2022-10-10T18:46:46.157Z,12.35
2022-10-10T18:49:14.742Z,12.33
2022-10-10T18:51:43.257Z,12.21
2022-10-10T18:54:12.659Z,12.02
2022-10-10T18:56:41.176Z,11.77
2022-10-10T18:59:11.270Z,11.55
2022-10-10T19:01:40.514Z,11.31
2022-10-10T19:04:09.732Z,11.13
2022-10-10T19:06:38.688Z,10.93
2022-10-10T19:09:07.021Z,10.74
2022-10-10T19:11:35.723Z,10.64
2022-10-10T19:14:04.544Z,10.62
2022-10-10T19:16:32.847Z,10.55
2022-10-10T19:19:02.509Z,10.40
2022-10-10T19:21:31.762Z,10.31
2022-10-10T19:23:59.841Z,10.27
2022-10-10T19:26:33.022Z,10.27
2022-10-10T19:29:06.458Z,10.24
2022-10-10T19:31:35.055Z,10.16
2022-10-10T19:34:04.693Z,10.08
2022-10-10T19:36:32.461Z,9.92
2022-10-10T19:39:00.812Z,9.90
2022-10-10T19:41:28.997Z,9.83
2022-10-10T19:43:57.943Z,9.71
2022-10-10T19:46:26.836Z,9.67
2022-10-10T19:48:56.845Z,9.54
2022-10-10T19:51:27.164Z,9.56
2022-10-10T19:53:55.093Z,9.48
2022-10-10T19:56:25.214Z,9.38
2022-10-10T19:58:53.657Z,9.31
2022-10-10T20:01:24.501Z,9.19
2022-10-10T20:03:56.244Z,9.02
2022-10-10T20:06:24.053Z,8.92
2022-10-10T20:08:53.155Z,8.83
2022-10-10T20:11:21.488Z,8.75
2022-10-10T20:13:51.779Z,8.67
2022-10-10T20:16:20.043Z,8.60
2022-10-10T20:18:47.941Z,8.53
2022-10-10T20:21:17.587Z,8.44
2022-10-10T20:23:45.960Z,8.38
2022-10-10T20:26:15.897Z,8.31
2022-10-10T20:28:44.329Z,8.24
2022-10-10T20:31:16.073Z,8.20
2022-10-10T20:33:44.445Z,8.20
2022-10-10T20:36:12.378Z,8.13
2022-10-10T20:38:40.166Z,8.05
2022-10-10T20:41:08.907Z,8.02
2022-10-10T20:43:38.920Z,7.96
2022-10-10T20:46:07.765Z,7.91
2022-10-10T20:48:36.008Z,7.94
2022-10-10T20:51:04.778Z,7.88
2022-10-10T20:53:32.672Z,7.83
2022-10-10T20:56:03.302Z,7.76
2022-10-10T20:58:31.412Z,7.75
2022-10-10T21:01:10.905Z,7.69
2022-10-10T21:03:39.653Z,7.68
2022-10-10T21:06:09.029Z,7.71
2022-10-10T21:08:37.138Z,7.67
2022-10-10T21:11:06.198Z,7.59
2022-10-10T21:13:34.169Z,7.60
2022-10-10T21:16:02.496Z,7.63
2022-10-10T21:18:31.865Z,7.50
2022-10-10T21:21:00.623Z,7.40
2022-10-10T21:23:29.976Z,7.34
2022-10-10T21:25:57.723Z,7.27
2022-10-10T21:28:25.688Z,7.19
2022-10-10T21:30:53.704Z,7.14
2022-10-10T21:33:21.513Z,7.22
2022-10-10T21:35:52.631Z,7.27
2022-10-10T21:38:20.952Z,7.18
2022-10-10T21:40:49.310Z,7.34
2022-10-10T21:43:17.224Z,7.32
2022-10-10T21:45:45.008Z,7.41
2022-10-10T21:48:13.242Z,7.54
2022-10-10T21:50:41.658Z,7.43
2022-10-10T21:53:10.800Z,7.29
2022-10-10T21:55:39.280Z,7.31
2022-10-10T21:58:07.083Z,7.08
2022-10-10T22:00:34.890Z,6.93
2022-10-10T22:03:02.798Z,6.87
2022-10-10T22:05:30.962Z,6.98
2022-10-10T22:07:58.743Z,7.05
2022-10-10T22:10:28.388Z,6.93
2022-10-10T22:12:56.435Z,6.91
2022-10-10T22:15:24.548Z,6.81
2022-10-10T22:17:52.326Z,6.77
2022-10-10T22:20:20.254Z,6.81
2022-10-10T22:22:47.995Z,6.82
2022-10-10T22:25:17.522Z,6.99
2022-10-10T22:27:46.798Z,6.85
2022-10-10T22:30:14.903Z,6.75
2022-10-10T22:32:42.674Z,6.66
2022-10-10T22:35:11.805Z,6.78
2022-10-10T22:37:39.840Z,6.65
2022-10-10T22:40:08.246Z,6.57
2022-10-10T22:42:36.003Z,6.59
2022-10-10T22:45:05.597Z,6.61
2022-10-10T22:47:33.347Z,6.64
2022-10-10T22:50:01.138Z,6.55
2022-10-10T22:52:29.184Z,6.53
2022-10-10T22:54:56.977Z,6.53
2022-10-10T22:57:24.724Z,6.51
2022-10-10T22:59:52.897Z,6.74
2022-10-10T23:02:21.998Z,6.71
2022-10-10T23:04:49.885Z,6.56
2022-10-10T23:07:19.933Z,6.48
2022-10-10T23:09:47.800Z,6.59
2022-10-10T23:12:15.623Z,6.56
2022-10-10T23:14:43.362Z,6.53
2022-10-10T23:17:11.306Z,6.35
2022-10-10T23:19:40.405Z,6.29
2022-10-10T23:22:08.157Z,6.32
2022-10-10T23:24:37.311Z,6.36
2022-10-10T23:27:05.116Z,6.35
2022-10-10T23:29:33.518Z,6.38
2022-10-10T23:32:01.292Z,6.22
2022-10-10T23:34:29.038Z,6.09
2022-10-10T23:36:58.107Z,5.96
2022-10-10T23:39:25.886Z,5.87
2022-10-10T23:41:53.765Z,5.98
2022-10-10T23:44:21.509Z,5.99
2022-10-10T23:46:49.254Z,6.07
2022-10-10T23:49:17.014Z,6.12
2022-10-10T23:51:44.746Z,6.00
2022-10-10T23:54:14.030Z,6.05
2022-10-10T23:56:41.883Z,6.03
2022-10-10T23:59:09.644Z,6.02
